Time;durP1;ratioP1;P1;durP2;ratioP2;P2;SDS_P1;SDS_P2;PMS_P1;PMS_P2;Temp;Humidity;BMP_temperature;BMP_pressure;BME280_temperature;BME280_humidity;BME280_pressure;Samples;Min_cycle;Max_cycle;Signal;HPM_P1;HPM_P2
2021/10/17 00:00:12;;;;;;;3.40;2.43;;;11.10;99.90;;;;;;4954849;28;20756;-65
2021/10/17 00:02:39;;;;;;;3.97;2.53;;;11.10;99.90;;;;;;4957846;28;20614;-65
2021/10/17 00:05:05;;;;;;;3.20;2.40;;;11.10;99.90;;;;;;4954156;28;20662;-65
2021/10/17 00:07:36;;;;;;;5.10;2.90;;;11.10;99.90;;;;;;4955961;28;20611;-65
2021/10/17 00:10:04;;;;;;;5.73;2.67;;;11.10;99.90;;;;;;4966516;28;20623;-66
2021/10/17 00:12:33;;;;;;;3.67;2.77;;;11.10;99.90;;;;;;4953148;28;20615;-65
2021/10/17 00:14:58;;;;;;;4.13;2.30;;;11.00;99.90;;;;;;4973656;28;20693;-65
2021/10/17 00:17:26;;;;;;;4.53;2.50;;;11.00;99.90;;;;;;4959978;28;21220;-65
2021/10/17 00:19:54;;;;;;;4.63;2.90;;;11.00;99.90;;;;;;4961176;28;20884;-65
2021/10/17 00:22:19;;;;;;;6.80;3.00;;;11.00;99.90;;;;;;4961419;28;20700;-66
2021/10/17 00:24:50;;;;;;;3.67;2.57;;;11.00;99.90;;;;;;4959586;28;20647;-64
2021/10/17 00:27:22;;;;;;;5.27;2.73;;;11.00;99.90;;;;;;4959682;28;20214;-65
2021/10/17 00:29:47;;;;;;;4.97;2.87;;;11.00;99.90;;;;;;4961050;28;20635;-65
2021/10/17 00:32:13;;;;;;;6.10;2.80;;;11.00;99.90;;;;;;4950608;28;20630;-65
2021/10/17 00:34:44;;;;;;;5.20;3.10;;;10.90;99.90;;;;;;4956439;28;20241;-65
2021/10/17 00:37:10;;;;;;;6.13;2.97;;;10.90;99.90;;;;;;4961276;28;20605;-65
2021/10/17 00:39:38;;;;;;;3.77;2.57;;;10.90;99.90;;;;;;4959846;28;20654;-65
2021/10/17 00:42:14;;;;;;;5.30;3.03;;;10.90;99.90;;;;;;4955458;28;20235;-65
2021/10/17 00:44:41;;;;;;;5.40;2.40;;;10.90;99.90;;;;;;4966774;28;20729;-68
2021/10/17 00:47:07;;;;;;;3.37;2.63;;;10.90;99.90;;;;;;4956296;28;20970;-64
2021/10/17 00:49:33;;;;;;;4.57;2.43;;;10.90;99.90;;;;;;4952450;28;20626;-65
2021/10/17 00:52:00;;;;;;;6.03;4.20;;;11.00;99.90;;;;;;4969722;28;20218;-66
2021/10/17 00:54:28;;;;;;;6.33;2.93;;;11.00;99.90;;;;;;4956712;28;20658;-65
2021/10/17 00:57:05;;;;;;;6.30;2.80;;;11.00;99.90;;;;;;4952396;28;20658;-65
2021/10/17 00:59:31;;;;;;;5.87;3.87;;;11.00;99.90;;;;;;4943864;28;20644;-65
2021/10/17 01:01:59;;;;;;;4.50;2.60;;;10.90;99.90;;;;;;4956660;28;20634;-65
2021/10/17 01:04:30;;;;;;;4.57;3.07;;;10.90;99.90;;;;;;4956507;28;20282;-65
2021/10/17 01:06:56;;;;;;;3.30;2.60;;;10.90;99.90;;;;;;4957360;28;20746;-66
2021/10/17 01:09:22;;;;;;;4.30;2.67;;;10.90;99.90;;;;;;4961660;28;20706;-65
2021/10/17 01:11:50;;;;;;;8.10;2.73;;;11.00;99.90;;;;;;4964698;28;20242;-65
2021/10/17 01:14:20;;;;;;;6.77;3.00;;;10.90;99.90;;;;;;4940339;28;20270;-66
2021/10/17 01:16:49;;;;;;;4.40;2.83;;;10.90;99.90;;;;;;4957949;28;20750;-65
2021/10/17 01:19:18;;;;;;;3.13;2.83;;;11.00;99.90;;;;;;4952388;28;20674;-65
2021/10/17 01:21:44;;;;;;;5.23;2.80;;;11.00;99.90;;;;;;4957891;28;20611;-65
2021/10/17 01:24:11;;;;;;;2.90;2.20;;;11.00;99.90;;;;;;4956794;28;20647;-65
2021/10/17 01:26:37;;;;;;;6.80;3.20;;;10.90;99.90;;;;;;4952380;28;20639;-67
2021/10/17 01:29:04;;;;;;;4.50;2.70;;;10.90;99.90;;;;;;4962794;28;20607;-66
2021/10/17 01:31:34;;;;;;;3.40;2.80;;;10.90;99.90;;;;;;4953407;28;21280;-67
2021/10/17 01:34:02;;;;;;;2.87;2.57;;;10.90;99.90;;;;;;4954387;28;20637;-64
2021/10/17 01:36:30;;;;;;;5.37;3.37;;;10.90;99.90;;;;;;4955428;28;20642;-66
2021/10/17 01:38:56;;;;;;;7.27;2.70;;;10.90;99.90;;;;;;4958012;28;20650;-65
2021/10/17 01:41:24;;;;;;;7.73;3.13;;;10.90;99.90;;;;;;4972473;28;20604;-64
2021/10/17 01:43:50;;;;;;;7.17;3.53;;;10.90;99.90;;;;;;4954004;28;21277;-65
2021/10/17 01:46:23;;;;;;;3.97;2.93;;;10.90;99.90;;;;;;4957849;28;20642;-64
2021/10/17 01:48:59;;;;;;;4.20;2.80;;;10.90;99.90;;;;;;4980063;28;20725;-65
2021/10/17 01:51:28;;;;;;;4.17;3.27;;;11.00;99.90;;;;;;4959979;28;20618;-66
2021/10/17 01:54:03;;;;;;;4.83;3.30;;;10.90;99.90;;;;;;4957375;28;20647;-65
2021/10/17 01:56:29;;;;;;;5.23;3.70;;;10.90;99.90;;;;;;4958481;28;20650;-65
2021/10/17 01:58:55;;;;;;;6.20;3.43;;;10.80;99.90;;;;;;4953258;28;20646;-65
2021/10/17 02:01:20;;;;;;;5.00;2.90;;;10.80;99.90;;;;;;4959263;28;20972;-66
2021/10/17 02:03:46;;;;;;;4.90;3.30;;;10.90;99.90;;;;;;4952123;28;20615;-64
2021/10/17 02:06:12;;;;;;;6.60;3.47;;;10.90;99.90;;;;;;4953932;28;20203;-65
2021/10/17 02:08:37;;;;;;;5.07;3.37;;;10.90;99.90;;;;;;4955031;28;20192;-65
2021/10/17 02:11:03;;;;;;;8.50;4.13;;;10.90;99.90;;;;;;4972084;28;20656;-65
2021/10/17 02:13:31;;;;;;;5.00;3.20;;;10.90;99.90;;;;;;4969988;28;20643;-65
2021/10/17 02:15:57;;;;;;;5.30;3.33;;;10.90;99.90;;;;;;4971140;28;20256;-65
2021/10/17 02:18:25;;;;;;;7.00;3.63;;;10.90;99.90;;;;;;4953695;28;20646;-65
2021/10/17 02:20:50;;;;;;;5.67;3.80;;;10.90;99.90;;;;;;4955818;28;20187;-65
2021/10/17 02:23:19;;;;;;;5.77;3.80;;;10.90;99.90;;;;;;4954031;28;20698;-65
2021/10/17 02:25:45;;;;;;;4.97;3.60;;;10.90;99.90;;;;;;4956888;28;20278;-65
2021/10/17 02:28:10;;;;;;;6.10;4.00;;;10.90;99.90;;;;;;4955655;28;20655;-65
2021/10/17 02:30:39;;;;;;;7.67;3.63;;;10.80;99.90;;;;;;4959094;28;20223;-65
2021/10/17 02:33:05;;;;;;;6.60;4.10;;;10.90;99.90;;;;;;4956474;28;20183;-66
2021/10/17 02:35:33;;;;;;;6.60;3.87;;;10.90;99.90;;;;;;4958099;28;20642;-65
2021/10/17 02:37:58;;;;;;;5.03;3.70;;;10.80;99.90;;;;;;4955917;28;20274;-65
2021/10/17 02:40:27;;;;;;;6.30;3.53;;;10.80;99.90;;;;;;4956714;28;20806;-65
2021/10/17 02:42:57;;;;;;;7.10;3.73;;;10.90;99.90;;;;;;4956830;28;20188;-66
2021/10/17 02:45:23;;;;;;;6.03;4.20;;;10.80;99.90;;;;;;4955615;28;20999;-62
2021/10/17 02:47:52;;;;;;;5.50;3.80;;;10.80;99.90;;;;;;4957304;28;20594;-63
2021/10/17 02:50:17;;;;;;;6.80;3.77;;;10.80;99.90;;;;;;4956919;28;20319;-63
2021/10/17 02:52:43;;;;;;;4.97;3.90;;;10.80;99.90;;;;;;4956958;28;20728;-62
2021/10/17 02:55:09;;;;;;;5.63;4.20;;;10.90;99.90;;;;;;4956645;28;20235;-63
2021/10/17 02:57:36;;;;;;;5.43;3.50;;;10.90;99.90;;;;;;4955710;28;20219;-63
2021/10/17 03:00:04;;;;;;;7.60;4.60;;;10.80;99.90;;;;;;4954916;28;20202;-65
2021/10/17 03:02:32;;;;;;;6.80;3.77;;;10.90;99.90;;;;;;4958519;28;20610;-66
2021/10/17 03:04:57;;;;;;;7.13;4.27;;;10.90;99.90;;;;;;4953914;28;20674;-65
2021/10/17 03:07:23;;;;;;;6.80;4.67;;;10.90;99.90;;;;;;4953575;28;20627;-65
2021/10/17 03:09:48;;;;;;;9.23;4.20;;;10.90;99.90;;;;;;4956801;28;20195;-65
2021/10/17 03:12:17;;;;;;;8.53;3.70;;;10.80;99.90;;;;;;4957690;28;20628;-65
2021/10/17 03:14:45;;;;;;;7.77;4.13;;;10.90;99.90;;;;;;4953227;28;20222;-63
2021/10/17 03:17:10;;;;;;;5.43;4.50;;;10.80;99.90;;;;;;4957337;28;20682;-64
2021/10/17 03:19:36;;;;;;;6.90;4.00;;;10.90;99.90;;;;;;4957352;28;20647;-63
2021/10/17 03:22:05;;;;;;;5.50;4.17;;;10.80;99.90;;;;;;4954533;28;20262;-63
2021/10/17 03:24:30;;;;;;;5.97;4.47;;;10.80;99.90;;;;;;4956040;28;20693;-63
2021/10/17 03:26:58;;;;;;;4.83;4.33;;;10.80;99.90;;;;;;4954767;28;20728;-62
2021/10/17 03:29:23;;;;;;;9.60;5.30;;;10.80;99.90;;;;;;4957906;28;20198;-63
2021/10/17 03:31:52;;;;;;;8.20;4.53;;;10.80;99.90;;;;;;4955547;28;21155;-64
2021/10/17 03:34:28;;;;;;;9.40;5.00;;;10.80;99.90;;;;;;4952962;28;20241;-63
2021/10/17 03:36:53;;;;;;;8.20;4.40;;;10.90;99.90;;;;;;4969822;28;20673;-63
2021/10/17 03:39:19;;;;;;;5.70;4.43;;;10.80;99.90;;;;;;4952284;28;20685;-63
2021/10/17 03:41:52;;;;;;;4.97;4.40;;;10.90;99.90;;;;;;4954150;28;20202;-62
2021/10/17 03:44:20;;;;;;;8.97;4.37;;;10.90;99.90;;;;;;4972787;28;20311;-64
2021/10/17 03:46:49;;;;;;;8.07;4.93;;;10.80;99.90;;;;;;4957654;28;20868;-66
2021/10/17 03:49:14;;;;;;;5.87;4.80;;;10.90;99.90;;;;;;4959541;28;20682;-63
2021/10/17 03:51:40;;;;;;;6.43;4.73;;;10.80;99.90;;;;;;4962692;28;20617;-63
2021/10/17 03:54:11;;;;;;;8.77;4.70;;;10.80;99.90;;;;;;4960938;28;20231;-63
2021/10/17 03:56:36;;;;;;;6.50;5.03;;;10.80;99.90;;;;;;4962188;28;20319;-62
2021/10/17 03:59:04;;;;;;;8.57;5.00;;;10.80;99.90;;;;;;4954561;28;20742;-63
2021/10/17 04:01:32;;;;;;;5.53;4.27;;;10.80;99.90;;;;;;4959315;28;20641;-63
2021/10/17 04:03:58;;;;;;;6.50;4.73;;;10.80;99.90;;;;;;4959990;28;20673;-63
2021/10/17 04:06:23;;;;;;;5.50;4.40;;;10.80;99.90;;;;;;4961082;28;20669;-64
2021/10/17 04:08:54;;;;;;;7.23;4.93;;;10.80;99.90;;;;;;4961190;28;20198;-62
2021/10/17 04:11:20;;;;;;;8.97;4.60;;;10.80;99.90;;;;;;4976785;28;20188;-63
2021/10/17 04:13:48;;;;;;;5.77;4.80;;;10.80;99.90;;;;;;4959492;28;21267;-60
2021/10/17 04:16:18;;;;;;;5.87;4.00;;;10.80;99.90;;;;;;4960362;28;20221;-61
2021/10/17 04:18:43;;;;;;;7.73;4.60;;;10.80;99.90;;;;;;4960797;28;20985;-62
2021/10/17 04:21:11;;;;;;;11.73;5.63;;;10.70;99.90;;;;;;4963182;28;20615;-63
2021/10/17 04:23:39;;;;;;;8.13;4.93;;;10.70;99.90;;;;;;4959524;28;20230;-61
2021/10/17 04:26:07;;;;;;;7.20;4.73;;;10.70;99.90;;;;;;4963215;28;20672;-62
2021/10/17 04:28:40;;;;;;;6.87;4.80;;;10.70;99.90;;;;;;4962245;28;20619;-64
2021/10/17 04:31:06;;;;;;;8.20;4.87;;;10.70;99.90;;;;;;4958633;28;21182;-62
2021/10/17 04:33:31;;;;;;;8.80;4.77;;;10.70;99.90;;;;;;4959477;28;20652;-62
2021/10/17 04:35:59;;;;;;;6.00;5.30;;;10.70;99.90;;;;;;4957475;28;20629;-62
2021/10/17 04:38:25;;;;;;;5.57;4.67;;;10.70;99.90;;;;;;4961646;28;20227;-62
2021/10/17 04:40:51;;;;;;;11.23;4.87;;;10.70;99.90;;;;;;4973628;28;21428;-63
2021/10/17 04:43:21;;;;;;;8.60;4.90;;;10.70;99.90;;;;;;4961892;28;20230;-62
2021/10/17 04:45:47;;;;;;;8.80;5.43;;;10.70;99.90;;;;;;4958467;28;20215;-62
2021/10/17 04:48:13;;;;;;;5.40;4.57;;;10.70;99.90;;;;;;4960196;28;20626;-63
2021/10/17 04:50:41;;;;;;;7.30;4.90;;;10.70;99.90;;;;;;4959894;28;20231;-62
2021/10/17 04:53:07;;;;;;;7.10;5.10;;;10.70;99.90;;;;;;4961188;28;20219;-61
2021/10/17 04:55:38;;;;;;;7.30;4.80;;;10.70;99.90;;;;;;4960225;28;20689;-62
2021/10/17 04:58:05;;;;;;;9.30;5.30;;;10.70;99.90;;;;;;4960104;28;20475;-62
2021/10/17 05:00:30;;;;;;;9.90;5.70;;;10.70;99.90;;;;;;4955155;28;20708;-62
2021/10/17 05:02:56;;;;;;;7.90;5.77;;;10.80;99.90;;;;;;4956545;28;20619;-62
2021/10/17 05:05:22;;;;;;;6.47;5.43;;;10.70;99.90;;;;;;4956698;28;20214;-63
2021/10/17 05:07:50;;;;;;;10.73;5.40;;;10.80;99.90;;;;;;4959251;28;20231;-62
2021/10/17 05:10:21;;;;;;;7.47;5.83;;;10.80;99.90;;;;;;4958357;28;20202;-62
2021/10/17 05:12:48;;;;;;;8.33;4.57;;;10.80;99.90;;;;;;4958110;28;20681;-62
2021/10/17 05:15:16;;;;;;;6.93;5.17;;;10.80;99.90;;;;;;4957662;28;20650;-62
2021/10/17 05:17:49;;;;;;;7.77;4.93;;;10.80;99.90;;;;;;4959441;28;20654;-60
2021/10/17 05:20:15;;;;;;;7.93;5.63;;;10.80;99.90;;;;;;4971653;28;20709;-62
2021/10/17 05:22:41;;;;;;;8.00;5.20;;;10.80;99.90;;;;;;4973859;28;20635;-62
2021/10/17 05:25:16;;;;;;;;;;;;;;;;;;;;;
2021/10/17 05:27:48;;;;;;;6.50;5.30;;;10.80;99.90;;;;;;4960511;28;20179;-61
2021/10/17 05:30:13;;;;;;;6.67;5.23;;;10.90;99.90;;;;;;4958879;28;20622;-62
2021/10/17 05:32:39;;;;;;;10.33;5.70;;;10.90;99.90;;;;;;4953428;28;21162;-62
2021/10/17 05:35:07;;;;;;;7.10;5.40;;;10.90;99.90;;;;;;4957284;28;20234;-64
2021/10/17 05:37:33;;;;;;;8.20;5.30;;;10.80;99.90;;;;;;4958168;28;20246;-61
2021/10/17 05:40:01;;;;;;;6.30;5.40;;;10.90;99.90;;;;;;4948428;28;20643;-63
2021/10/17 05:42:30;;;;;;;8.93;5.10;;;10.90;99.90;;;;;;4955852;28;20183;-62
2021/10/17 05:45:02;;;;;;;8.63;5.73;;;10.90;99.90;;;;;;4968753;28;20724;-62
2021/10/17 05:47:28;;;;;;;8.20;5.53;;;10.90;99.90;;;;;;4957089;28;20608;-62
2021/10/17 05:49:53;;;;;;;8.33;5.53;;;10.90;99.90;;;;;;4954613;28;20630;-62
2021/10/17 05:52:24;;;;;;;7.13;5.27;;;10.90;99.90;;;;;;4957407;28;20219;-65
2021/10/17 05:54:53;;;;;;;8.23;5.23;;;10.90;99.90;;;;;;4957918;28;20719;-65
2021/10/17 05:57:21;;;;;;;8.70;5.60;;;10.90;99.90;;;;;;4956994;28;20725;-64
2021/10/17 05:59:49;;;;;;;9.63;6.00;;;10.90;99.90;;;;;;4953044;28;20649;-64
2021/10/17 06:02:20;;;;;;;12.97;6.10;;;10.90;99.90;;;;;;4971543;28;20618;-65
2021/10/17 06:04:45;;;;;;;7.53;5.60;;;10.90;99.90;;;;;;4965756;28;21218;-65
2021/10/17 06:07:13;;;;;;;9.30;6.00;;;10.90;99.90;;;;;;4953946;28;20666;-64
2021/10/17 06:09:41;;;;;;;7.23;5.90;;;10.90;99.90;;;;;;4957271;28;20703;-64
2021/10/17 06:12:12;;;;;;;7.37;5.80;;;10.90;99.90;;;;;;4958267;28;20625;-65
2021/10/17 06:14:37;;;;;;;5.80;5.20;;;11.00;99.90;;;;;;4961333;28;20729;-67
2021/10/17 06:17:04;;;;;;;10.50;5.80;;;11.00;99.90;;;;;;4961010;28;20747;-65
2021/10/17 06:19:34;;;;;;;8.37;6.17;;;11.00;99.90;;;;;;4962018;28;20222;-65
2021/10/17 06:22:03;;;;;;;9.23;5.70;;;11.00;99.90;;;;;;4958904;28;21204;-65
2021/10/17 06:24:37;;;;;;;8.00;5.60;;;11.00;99.90;;;;;;4954173;28;20651;-64
2021/10/17 06:27:11;;;;;;;7.53;6.03;;;11.00;99.90;;;;;;4960390;28;20618;-64
2021/10/17 06:29:39;;;;;;;8.87;6.10;;;11.10;99.90;;;;;;4957533;28;21161;-64
2021/10/17 06:32:05;;;;;;;8.50;5.70;;;11.00;99.90;;;;;;4956101;28;20686;-64
2021/10/17 06:34:31;;;;;;;8.37;6.03;;;11.10;99.90;;;;;;4947575;28;21250;-65
2021/10/17 06:37:00;;;;;;;7.43;6.10;;;11.10;99.90;;;;;;4951980;28;20666;-67
2021/10/17 06:39:25;;;;;;;11.13;5.70;;;11.10;99.90;;;;;;4950056;28;20257;-65
2021/10/17 06:41:51;;;;;;;8.20;5.70;;;11.10;99.90;;;;;;4959761;28;20647;-65
2021/10/17 06:44:19;;;;;;;8.60;6.43;;;11.10;99.90;;;;;;4953760;28;20234;-66
2021/10/17 06:46:45;;;;;;;10.53;6.00;;;11.20;99.90;;;;;;4956671;28;20241;-64
2021/10/17 06:49:11;;;;;;;8.77;6.40;;;11.20;99.90;;;;;;4956627;28;20653;-66
2021/10/17 06:51:37;;;;;;;11.20;6.50;;;11.20;99.90;;;;;;4971519;28;20628;-65
2021/10/17 06:54:03;;;;;;;6.63;6.00;;;11.20;99.90;;;;;;4955872;28;20227;-65
2021/10/17 06:56:28;;;;;;;10.30;6.60;;;11.20;99.90;;;;;;4957343;28;20222;-66
2021/10/17 06:58:56;;;;;;;8.90;6.57;;;11.30;99.90;;;;;;4958160;28;20199;-64
2021/10/17 07:01:22;;;;;;;7.77;6.37;;;11.30;99.90;;;;;;4970446;28;20194;-64
2021/10/17 07:03:50;;;;;;;10.20;6.63;;;11.30;99.90;;;;;;4955608;28;21011;-64
2021/10/17 07:06:15;;;;;;;9.90;6.67;;;11.30;99.90;;;;;;4957997;28;20214;-65
2021/10/17 07:08:41;;;;;;;8.50;6.20;;;11.30;99.90;;;;;;4946708;28;20619;-65
2021/10/17 07:11:09;;;;;;;14.07;7.80;;;11.30;99.90;;;;;;4945107;28;20195;-65
2021/10/17 07:13:35;;;;;;;9.57;6.60;;;11.30;99.90;;;;;;4947628;28;20227;-67
2021/10/17 07:16:03;;;;;;;10.90;6.87;;;11.40;99.90;;;;;;4944103;28;20662;-66
2021/10/17 07:18:36;;;;;;;9.60;6.37;;;11.40;99.90;;;;;;4947091;28;20777;-66
2021/10/17 07:21:01;;;;;;;10.47;6.17;;;11.40;99.90;;;;;;4963956;28;20695;-65
2021/10/17 07:23:27;;;;;;;9.30;7.07;;;11.40;99.90;;;;;;4937689;28;20782;-65
2021/10/17 07:25:53;;;;;;;10.57;7.13;;;11.40;99.90;;;;;;4943543;28;20222;-67
2021/10/17 07:28:18;;;;;;;8.90;6.20;;;11.40;99.90;;;;;;4944501;28;20198;-66
2021/10/17 07:30:44;;;;;;;8.23;7.43;;;11.40;99.90;;;;;;4939749;28;20362;-66
2021/10/17 07:33:09;;;;;;;8.53;6.60;;;11.50;99.90;;;;;;4946050;28;20195;-67
2021/10/17 07:35:35;;;;;;;11.30;9.10;;;11.40;99.90;;;;;;4948232;28;20240;-63
2021/10/17 07:38:01;;;;;;;10.50;6.90;;;11.40;99.90;;;;;;4973033;28;20195;-64
2021/10/17 07:40:27;;;;;;;11.27;7.80;;;11.40;99.90;;;;;;4958159;28;20948;-64
2021/10/17 07:42:52;;;;;;;9.67;7.30;;;11.40;99.90;;;;;;4955523;28;20190;-64
2021/10/17 07:45:18;;;;;;;12.37;7.23;;;11.40;99.90;;;;;;4953927;28;20659;-64
2021/10/17 07:47:43;;;;;;;9.63;7.10;;;11.40;99.90;;;;;;4960255;28;20412;-63
2021/10/17 07:50:09;;;;;;;11.10;6.97;;;11.40;99.90;;;;;;4965019;28;20191;-64
2021/10/17 07:52:36;;;;;;;9.53;7.03;;;11.40;99.90;;;;;;4964333;28;20246;-64
2021/10/17 07:55:03;;;;;;;10.50;7.30;;;11.40;99.90;;;;;;4962149;28;20761;-64
2021/10/17 07:57:29;;;;;;;13.40;7.73;;;11.40;99.90;;;;;;4964097;28;20978;-64
2021/10/17 07:59:55;;;;;;;10.43;7.20;;;11.40;99.90;;;;;;4961732;28;20660;-64
2021/10/17 08:02:20;;;;;;;9.00;6.90;;;11.40;99.90;;;;;;4960235;28;20199;-64
2021/10/17 08:04:48;;;;;;;14.10;7.87;;;11.50;99.90;;;;;;4958416;28;20231;-66
2021/10/17 08:07:17;;;;;;;9.30;6.77;;;11.40;99.90;;;;;;4961849;28;20199;-64
2021/10/17 08:09:42;;;;;;;12.27;7.70;;;11.50;99.90;;;;;;4962903;28;20672;-65
2021/10/17 08:12:11;;;;;;;10.13;7.07;;;11.50;99.90;;;;;;4958087;28;21017;-64
2021/10/17 08:14:36;;;;;;;11.83;8.10;;;11.50;99.90;;;;;;4958934;28;20227;-64
2021/10/17 08:17:02;;;;;;;10.57;7.90;;;11.50;99.90;;;;;;4955831;28;20640;-64
2021/10/17 08:19:28;;;;;;;14.47;8.20;;;11.60;99.90;;;;;;4959375;28;20218;-64
2021/10/17 08:21:53;;;;;;;12.07;7.43;;;11.60;99.90;;;;;;4960834;28;20618;-64
2021/10/17 08:24:19;;;;;;;14.00;8.30;;;11.60;99.90;;;;;;4960719;28;20226;-63
2021/10/17 08:26:44;;;;;;;12.93;7.80;;;11.60;99.90;;;;;;4954371;28;20329;-64
2021/10/17 08:29:11;;;;;;;8.50;7.70;;;11.70;99.90;;;;;;4961052;28;20219;-64
2021/10/17 08:31:37;;;;;;;10.67;7.73;;;11.70;99.90;;;;;;4954774;28;20202;-64
2021/10/17 08:34:02;;;;;;;14.87;8.77;;;11.70;99.90;;;;;;4963153;28;20638;-63
2021/10/17 08:36:28;;;;;;;9.50;7.93;;;11.70;99.90;;;;;;4961777;28;20223;-62
2021/10/17 08:38:54;;;;;;;12.67;9.00;;;11.70;99.90;;;;;;4964951;28;20230;-64
2021/10/17 08:41:19;;;;;;;9.93;7.83;;;11.70;99.90;;;;;;4962569;28;20352;-64
2021/10/17 08:43:45;;;;;;;11.60;8.87;;;11.50;99.90;;;;;;4961522;28;20223;-64
2021/10/17 08:46:11;;;;;;;12.27;8.07;;;11.60;99.90;;;;;;4958967;28;20243;-64
2021/10/17 08:48:37;;;;;;;11.60;8.90;;;11.60;99.90;;;;;;4958448;28;20214;-64
2021/10/17 08:51:05;;;;;;;13.57;9.60;;;11.60;99.90;;;;;;4959469;28;20622;-64
2021/10/17 08:53:31;;;;;;;12.47;8.87;;;11.60;99.90;;;;;;4953813;28;20650;-64
2021/10/17 08:55:58;;;;;;;14.87;9.67;;;11.60;99.90;;;;;;4959956;28;20661;-64
2021/10/17 08:58:24;;;;;;;11.43;9.20;;;11.60;99.90;;;;;;4962291;28;20851;-62
2021/10/17 09:00:50;;;;;;;14.50;9.63;;;11.60;99.90;;;;;;4960112;28;20654;-64
2021/10/17 09:03:31;;;;;;;13.50;11.13;;;11.60;99.90;;;;;;4959025;28;21416;-64
2021/10/17 09:05:56;;;;;;;13.20;9.80;;;11.50;99.90;;;;;;4962421;28;20661;-64
2021/10/17 09:08:27;;;;;;;12.20;8.97;;;11.60;99.90;;;;;;4962425;28;20607;-64
2021/10/17 09:10:53;;;;;;;11.73;9.40;;;11.70;99.90;;;;;;4961193;28;20194;-64
2021/10/17 09:13:18;;;;;;;12.00;9.07;;;11.60;99.90;;;;;;4959580;28;20657;-64
2021/10/17 09:15:45;;;;;;;16.33;9.80;;;11.70;99.90;;;;;;4974084;28;20642;-63
2021/10/17 09:18:21;;;;;;;14.80;9.47;;;11.70;99.90;;;;;;4978632;28;20195;-63
2021/10/17 09:20:47;;;;;;;13.93;10.73;;;11.70;99.90;;;;;;4959783;28;20670;-63
2021/10/17 09:23:14;;;;;;;13.90;10.17;;;11.70;99.90;;;;;;4953733;28;20626;-62
2021/10/17 09:25:40;;;;;;;15.97;11.13;;;11.70;99.90;;;;;;4953565;28;20254;-62
2021/10/17 09:28:29;;;;;;;11.80;9.43;;;11.70;99.90;;;;;;4948687;28;20717;-62
2021/10/17 09:31:09;;;;;;;17.73;10.50;;;11.70;99.90;;;;;;4954286;28;20634;-63
2021/10/17 09:34:01;;;;;;;10.90;9.60;;;11.70;99.90;;;;;;4945723;28;21019;-63
2021/10/17 09:36:33;;;;;;;13.63;9.70;;;11.70;99.90;;;;;;4947416;28;20663;-63
2021/10/17 09:39:12;;;;;;;16.27;9.93;;;11.70;99.90;;;;;;4948625;28;20661;-63
2021/10/17 09:41:50;;;;;;;14.30;9.80;;;11.60;99.90;;;;;;4948765;28;21215;-61
2021/10/17 09:44:16;;;;;;;14.40;10.00;;;11.70;99.90;;;;;;4951256;28;21068;-63
2021/10/17 09:46:59;;;;;;;14.20;9.83;;;11.70;99.90;;;;;;4950030;28;20638;-64
2021/10/17 09:49:24;;;;;;;14.60;9.20;;;11.70;99.90;;;;;;4948321;28;21155;-63
2021/10/17 09:52:09;;;;;;;15.57;11.30;;;11.80;99.90;;;;;;4950880;28;20615;-63
2021/10/17 09:54:34;;;;;;;16.27;10.87;;;11.80;99.90;;;;;;4954006;28;20650;-61
2021/10/17 09:57:06;;;;;;;13.90;11.03;;;11.80;99.90;;;;;;4954682;28;20670;-62
2021/10/17 09:59:32;;;;;;;15.97;10.40;;;11.90;99.90;;;;;;4947263;28;20730;-63
2021/10/17 10:01:58;;;;;;;14.60;10.90;;;11.90;99.90;;;;;;4942889;28;20638;-63
2021/10/17 10:04:25;;;;;;;13.77;10.43;;;11.90;99.90;;;;;;4946712;28;20679;-63
2021/10/17 10:06:52;;;;;;;14.50;10.63;;;12.00;99.90;;;;;;4944511;28;20203;-62
2021/10/17 10:09:20;;;;;;;13.13;10.20;;;12.00;99.90;;;;;;4945423;28;20733;-63
2021/10/17 10:11:46;;;;;;;14.10;10.43;;;12.00;99.90;;;;;;4951383;28;20646;-62
2021/10/17 10:14:13;;;;;;;17.53;10.30;;;12.10;99.90;;;;;;4945648;28;21253;-63
2021/10/17 10:16:39;;;;;;;14.37;10.10;;;12.10;99.90;;;;;;4944299;28;20647;-63
2021/10/17 10:19:07;;;;;;;11.90;10.23;;;12.10;99.90;;;;;;4945213;28;20658;-63
2021/10/17 10:21:35;;;;;;;15.00;9.97;;;12.20;99.90;;;;;;4949799;28;20683;-62
2021/10/17 10:24:03;;;;;;;13.20;10.07;;;12.20;99.90;;;;;;4951052;28;20645;-62
2021/10/17 10:26:31;;;;;;;13.17;10.10;;;12.20;99.90;;;;;;4952403;28;20755;-63
2021/10/17 10:28:57;;;;;;;14.70;8.90;;;12.10;99.90;;;;;;4944911;28;20619;-63
2021/10/17 10:31:51;;;;;;;14.53;9.80;;;12.20;99.90;;;;;;4949595;28;20619;-61
2021/10/17 10:34:23;;;;;;;13.87;10.03;;;12.20;99.90;;;;;;4948229;28;21585;-61
2021/10/17 10:36:50;;;;;;;16.40;9.80;;;12.30;99.90;;;;;;4953393;28;21171;-62
2021/10/17 10:39:21;;;;;;;13.97;10.40;;;12.30;99.90;;;;;;4951508;28;20750;-63
2021/10/17 10:41:48;;;;;;;15.90;9.97;;;12.20;99.90;;;;;;4949982;28;20612;-62
2021/10/17 10:44:21;;;;;;;11.77;8.93;;;12.30;99.90;;;;;;4960120;28;20635;-63
2021/10/17 10:46:49;;;;;;;14.97;10.80;;;12.30;99.90;;;;;;4951133;28;20647;-63
2021/10/17 10:49:49;;;;;;;14.17;9.67;;;12.30;99.90;;;;;;4950596;28;20614;-62
2021/10/17 10:52:24;;;;;;;11.70;9.43;;;12.40;99.90;;;;;;4953232;28;21083;-62
2021/10/17 10:54:54;;;;;;;14.73;10.30;;;12.40;99.90;;;;;;4950146;28;20653;-62
2021/10/17 10:57:21;;;;;;;16.30;10.10;;;12.40;99.90;;;;;;4952446;28;20627;-62
2021/10/17 11:00:08;;;;;;;14.10;10.20;;;12.40;99.90;;;;;;4947268;28;20657;-62
2021/10/17 11:02:34;;;;;;;12.87;9.83;;;12.40;99.90;;;;;;4947464;28;20632;-63
2021/10/17 11:05:16;;;;;;;13.57;9.97;;;12.40;99.90;;;;;;4949460;28;20650;-62
2021/10/17 11:07:47;;;;;;;13.00;9.20;;;12.50;99.90;;;;;;4960705;28;20713;-63
2021/10/17 11:10:27;;;;;;;12.40;8.90;;;12.50;99.90;;;;;;4951361;28;20603;-62
2021/10/17 11:12:57;;;;;;;12.20;9.57;;;12.50;99.90;;;;;;4949447;28;20630;-63
2021/10/17 11:15:28;;;;;;;11.90;9.10;;;12.50;99.90;;;;;;4951742;28;20658;-64
2021/10/17 11:18:11;;;;;;;13.87;9.40;;;12.50;99.90;;;;;;4964401;28;20621;-63
2021/10/17 11:20:38;;;;;;;12.60;9.70;;;12.60;99.90;;;;;;4948842;28;20790;-63
2021/10/17 11:23:06;;;;;;;12.63;9.77;;;12.60;99.90;;;;;;4952453;28;20722;-63
2021/10/17 11:25:32;;;;;;;14.60;8.97;;;12.60;99.90;;;;;;4952963;28;20729;-63
2021/10/17 11:27:58;;;;;;;11.83;9.20;;;12.60;99.90;;;;;;4949607;28;20622;-62
2021/10/17 11:30:30;;;;;;;11.17;9.33;;;12.70;99.90;;;;;;4944145;28;20638;-63
2021/10/17 11:32:57;;;;;;;12.07;9.33;;;12.70;99.90;;;;;;4939875;28;20637;-60
2021/10/17 11:35:31;;;;;;;12.70;9.30;;;12.70;99.90;;;;;;4949143;28;21197;-63
2021/10/17 11:37:58;;;;;;;10.23;8.90;;;12.70;99.90;;;;;;4946486;28;21191;-63
2021/10/17 11:40:24;;;;;;;9.63;8.50;;;12.70;99.90;;;;;;4949070;28;20698;-64
2021/10/17 11:42:53;;;;;;;10.50;9.00;;;12.80;99.90;;;;;;4930810;28;20708;-63
2021/10/17 11:45:30;;;;;;;13.00;8.90;;;12.80;99.90;;;;;;4939068;28;20650;-63
2021/10/17 11:48:00;;;;;;;13.83;9.60;;;12.80;99.90;;;;;;4938742;28;20670;-65
2021/10/17 11:50:28;;;;;;;14.77;9.00;;;12.90;99.90;;;;;;4947589;28;20627;-64
2021/10/17 11:52:54;;;;;;;10.37;9.20;;;12.90;99.90;;;;;;4949574;28;20644;-63
2021/10/17 11:55:36;;;;;;;14.53;8.30;;;12.90;99.90;;;;;;4938785;28;20655;-65
2021/10/17 11:58:03;;;;;;;14.83;9.70;;;12.90;99.90;;;;;;4947430;28;20738;-63
2021/10/17 12:00:31;;;;;;;11.83;8.90;;;13.00;99.90;;;;;;4931569;28;21125;-63
2021/10/17 12:02:57;;;;;;;15.83;9.20;;;13.00;99.90;;;;;;4952135;28;20635;-64
2021/10/17 12:05:27;;;;;;;12.83;8.87;;;13.00;99.90;;;;;;4940096;28;20641;-62
2021/10/17 12:07:56;;;;;;;12.87;8.00;;;13.00;99.90;;;;;;4939397;28;20873;-63
2021/10/17 12:10:23;;;;;;;12.10;9.20;;;13.00;99.90;;;;;;4942213;28;20611;-63
2021/10/17 12:12:49;;;;;;;13.33;9.57;;;13.10;99.90;;;;;;4942166;28;20724;-63
2021/10/17 12:15:15;;;;;;;10.30;8.60;;;13.00;99.90;;;;;;4943572;28;21218;-65
2021/10/17 12:17:42;;;;;;;12.87;8.43;;;13.10;99.90;;;;;;4940527;28;20187;-61
2021/10/17 12:20:14;;;;;;;11.80;9.33;;;13.10;99.90;;;;;;4940485;28;21203;-64
2021/10/17 12:22:47;;;;;;;12.67;9.03;;;13.10;99.90;;;;;;4941989;28;20635;-64
2021/10/17 12:25:15;;;;;;;11.93;9.90;;;13.10;99.90;;;;;;4940397;28;20745;-65
2021/10/17 12:27:46;;;;;;;11.07;8.63;;;13.10;99.90;;;;;;4937196;28;20665;-64
2021/10/17 12:30:20;;;;;;;9.50;8.23;;;13.10;99.90;;;;;;4944361;28;20627;-64
2021/10/17 12:32:54;;;;;;;14.93;9.23;;;13.20;99.90;;;;;;4940397;28;20639;-64
2021/10/17 12:35:22;;;;;;;11.10;8.23;;;13.20;99.90;;;;;;4959146;28;20652;-64
2021/10/17 12:37:49;;;;;;;13.03;8.70;;;13.20;99.90;;;;;;4959191;28;21033;-63
2021/10/17 12:40:14;;;;;;;13.60;8.97;;;13.20;99.90;;;;;;4942162;28;21186;-63
2021/10/17 12:43:08;;;;;;;12.83;9.03;;;13.20;99.90;;;;;;4944019;28;20641;-65
2021/10/17 12:45:34;;;;;;;11.57;9.03;;;13.20;99.90;;;;;;4942856;28;20321;-63
2021/10/17 12:48:00;;;;;;;14.13;8.30;;;13.20;99.90;;;;;;4958129;28;20663;-61